Time;durP1;ratioP1;P1;durP2;ratioP2;P2;SDS_P1;SDS_P2;PMS_P1;PMS_P2;Temp;Humidity;BMP_temperature;BMP_pressure;BME280_temperature;BME280_humidity;BME280_pressure;Samples;Min_cycle;Max_cycle;Signal;HPM_P1;HPM_P2
2021/05/19 07:17:27;;;;;;;;;;;;;;;14.67;63.39;99802.28;6228950;22;19950;-86
2021/05/19 07:19:52;;;;;;;;;;;;;;;14.59;63.76;99809.00;6217372;23;20300;-86
2021/05/19 07:22:18;;;;;;;;;;;;;;;14.53;63.61;99807.53;6242810;23;19908;-86
2021/05/19 07:24:45;;;;;;;;;;;;;;;14.48;63.62;99802.47;6242944;23;20131;-86
2021/05/19 07:27:10;;;;;;;;;;;;;;;14.45;63.67;99809.78;6242367;23;19907;-85
2021/05/19 07:29:35;;;;;;;;;;;;;;;14.43;63.11;99806.38;6241560;23;19961;-85
2021/05/19 07:32:02;;;;;;;;;;;;;;;14.40;63.09;99809.22;6214382;23;19907;-85
2021/05/19 07:34:27;;;;;;;;;;;;;;;14.38;62.91;99808.44;6240957;23;19916;-85
2021/05/19 07:36:52;;;;;;;;;;;;;;;14.34;62.52;99808.63;6214048;23;19908;-84
2021/05/19 07:39:18;;;;;;;;;;;;;;;14.32;62.34;99810.50;6214732;23;19915;-85
2021/05/19 07:41:43;;;;;;;;;;;;;;;14.31;62.05;99807.91;6240296;23;20344;-85
2021/05/19 07:44:09;;;;;;;;;;;;;;;14.29;62.03;99805.34;6240913;23;19907;-86
2021/05/19 07:46:34;;;;;;;;;;;;;;;14.27;61.86;99807.25;6214330;23;20203;-85
2021/05/19 07:49:01;;;;;;;;;;;;;;;14.27;61.79;99809.06;6242486;23;20237;-85
2021/05/19 07:51:26;;;;;;;;;;;;;;;14.25;61.70;99803.81;6215822;23;19977;-87
2021/05/19 07:53:53;;;;;;;;;;;;;;;14.24;61.70;99802.09;6216802;23;20284;-85
2021/05/19 07:56:42;;;;;;;;;;;;;;;14.23;61.49;99802.19;6215391;23;20208;-85
2021/05/19 07:59:09;;;;;;;;;;;;;;;14.23;61.62;99799.50;6240500;23;19919;-85
2021/05/19 08:04:00;;;;;;;;;;;;;;;14.21;61.48;99806.75;6246596;23;19914;-85
2021/05/19 08:06:25;;;;;;;;;;;;;;;14.20;61.40;99794.38;6240921;23;19915;-85
2021/05/19 08:08:50;;;;;;;;;;;;;;;14.19;61.34;99796.19;6243185;23;19919;-85
2021/05/19 08:11:16;;;;;;;;;;;;;;;14.18;61.35;99791.78;6242260;23;19916;-85
2021/05/19 08:13:42;;;;;;;;;;;;;;;14.17;61.33;99790.09;6241447;23;19916;-86
2021/05/19 08:16:08;;;;;;;;;;;;;;;14.16;61.37;99788.34;6216056;23;20157;-86
2021/05/19 08:18:33;;;;;;;;;;;;;;;14.14;61.36;99784.94;6241694;23;19993;-85
2021/05/19 08:20:59;;;;;;;;;;;;;;;14.14;61.45;99780.44;6215616;23;19939;-85
2021/05/19 08:23:24;;;;;;;;;;;;;;;14.14;61.33;99785.78;6215695;23;20162;-85
2021/05/19 08:25:49;;;;;;;;;;;;;;;14.13;61.45;99778.72;6215297;23;19927;-85
2021/05/19 08:28:15;;;;;;;;;;;;;;;14.11;61.41;99777.97;6239997;23;19927;-86
2021/05/19 08:30:41;;;;;;;;;;;;;;;14.11;61.38;99772.63;6240103;23;20389;-85
2021/05/19 08:33:06;;;;;;;;;;;;;;;14.11;61.46;99774.44;6241337;23;19915;-85
2021/05/19 08:35:31;;;;;;;;;;;;;;;14.10;61.52;99770.06;6215829;23;19939;-85
2021/05/19 08:37:57;;;;;;;;;;;;;;;14.10;61.52;99772.72;6243068;23;19922;-87
2021/05/19 08:40:22;;;;;;;;;;;;;;;14.09;61.54;99763.88;6241723;23;19943;-85
2021/05/19 08:42:48;;;;;;;;;;;;;;;14.09;61.37;99768.38;6215037;23;19911;-85
2021/05/19 08:45:15;;;;;;;;;;;;;;;14.08;61.41;99763.97;6216470;23;19915;-85
2021/05/19 08:47:40;;;;;;;;;;;;;;;14.07;61.51;99762.25;6240956;23;19919;-85
2021/05/19 08:50:07;;;;;;;;;;;;;;;14.08;61.36;99763.97;6214058;23;19915;-85
2021/05/19 08:52:38;;;;;;;;;;;;;;;14.05;61.34;99753.47;6241048;23;20272;-85
2021/05/19 08:55:13;;;;;;;;;;;;;;;14.06;61.41;99760.53;6213557;23;19970;-85
2021/05/19 08:57:41;;;;;;;;;;;;;;;14.06;61.30;99761.38;6240430;23;20172;-86
2021/05/19 09:00:08;;;;;;;;;;;;;;;14.05;61.45;99762.31;6213207;23;20027;-85
2021/05/19 09:02:34;;;;;;;;;;;;;;;14.06;61.54;99755.22;6214945;23;20304;-85
2021/05/19 09:04:59;;;;;;;;;;;;;;;14.06;61.44;99744.56;6215039;23;19921;-85
2021/05/19 09:07:25;;;;;;;;;;;;;;;14.05;61.31;99745.50;6241513;23;19915;-85
2021/05/19 09:09:51;;;;;;;;;;;;;;;14.05;61.29;99745.50;6240752;23;19962;-84
2021/05/19 09:12:18;;;;;;;;;;;;;;;14.06;61.34;99747.22;6241383;23;20211;-85
2021/05/19 09:15:00;;;;;;;;;;;;;;;14.05;61.41;99745.50;6240910;23;20292;-85
2021/05/19 09:17:30;;;;;;;;;;;;;;;14.05;61.40;99743.69;6242410;23;20090;-85
2021/05/19 09:20:04;;;;;;;;;;;;;;;14.05;61.39;99732.19;6242161;23;20085;-85
2021/05/19 09:22:34;;;;;;;;;;;;;;;14.04;61.43;99730.44;6239547;23;19986;-85
2021/05/19 09:25:02;;;;;;;;;;;;;;;14.04;61.48;99726.00;6212892;23;19915;-87
2021/05/19 09:27:37;;;;;;;;;;;;;;;14.04;61.43;99725.13;6239046;23;20053;-87
2021/05/19 09:30:03;;;;;;;;;;;;;;;14.03;61.51;99713.63;6212450;23;19915;-87
2021/05/19 09:32:28;;;;;;;;;;;;;;;14.04;61.51;99709.13;6213062;23;19965;-86
2021/05/19 09:34:54;;;;;;;;;;;;;;;14.04;61.39;99714.47;6213759;23;20200;-87
2021/05/19 09:37:26;;;;;;;;;;;;;;;14.03;61.50;99707.44;6213333;23;19972;-87
2021/05/19 09:39:58;;;;;;;;;;;;;;;14.04;61.39;99709.13;6213113;23;19915;-87
2021/05/19 09:42:25;;;;;;;;;;;;;;;14.03;61.31;99691.47;6240068;23;19915;-87
2021/05/19 09:44:52;;;;;;;;;;;;;;;14.04;61.23;99695.81;6214767;23;19969;-87
2021/05/19 09:47:40;;;;;;;;;;;;;;;14.04;60.96;99687.81;6220708;23;20304;-87
2021/05/19 09:50:06;;;;;;;;;;;;;;;14.05;60.91;99681.56;6247972;23;19978;-87
2021/05/19 09:52:31;;;;;;;;;;;;;;;14.06;60.52;99681.47;6217172;23;19969;-87
2021/05/19 09:55:10;;;;;;;;;;;;;;;14.07;60.45;99683.19;6242303;23;19924;-87
2021/05/19 09:57:42;;;;;;;;;;;;;;;14.05;60.42;99674.41;6216935;23;19915;-87
2021/05/19 10:00:08;;;;;;;;;;;;;;;14.06;60.38;99669.97;6241463;23;19911;-86
2021/05/19 10:02:34;;;;;;;;;;;;;;;14.07;60.22;99669.00;6216358;23;19964;-86
2021/05/19 10:05:07;;;;;;;;;;;;;;;14.06;60.29;99669.97;6215113;23;19912;-87
2021/05/19 10:07:32;;;;;;;;;;;;;;;14.06;60.25;99670.81;6247267;23;19962;-87
2021/05/19 10:09:58;;;;;;;;;;;;;;;14.06;60.12;99665.47;6248417;23;19915;-87
2021/05/19 10:12:24;;;;;;;;;;;;;;;14.06;60.12;99673.47;6218076;23;19919;-86
2021/05/19 10:14:50;;;;;;;;;;;;;;;14.07;60.11;99677.00;6245500;23;19939;-88
2021/05/19 10:17:16;;;;;;;;;;;;;;;14.10;60.13;99682.13;6241270;23;19943;-86
2021/05/19 10:19:48;;;;;;;;;;;;;;;14.10;59.86;99695.47;6216994;23;19920;-86
2021/05/19 10:22:15;;;;;;;;;;;;;;;14.12;59.93;99701.53;6240700;23;20249;-86
2021/05/19 10:24:49;;;;;;;;;;;;;;;14.11;59.82;99721.16;6239991;23;19915;-87
2021/05/19 10:27:15;;;;;;;;;;;;;;;14.08;60.25;99721.34;6213209;23;19916;-86
2021/05/19 10:29:47;;;;;;;;;;;;;;;14.08;60.19;99732.00;6241146;23;20013;-88
2021/05/19 10:32:21;;;;;;;;;;;;;;;14.06;60.37;99739.22;6215089;23;20017;-88
2021/05/19 10:34:49;;;;;;;;;;;;;;;14.04;60.65;99741.97;6241798;23;19999;-86
